sensor_id;sensor_type;location;lat;lon;timestamp;P1;durP1;ratioP1;P2;durP2;ratioP2
43580;SDS011;29175;51.030;4.606;2022-09-09T00:04:30;3.15;;;1.60;;
43580;SDS011;29175;51.030;4.606;2022-09-09T00:09:53;6.40;;;1.73;;
43580;SDS011;29175;51.030;4.606;2022-09-09T00:18:12;5.28;;;1.95;;
43580;SDS011;29175;51.030;4.606;2022-09-09T00:20:45;6.95;;;2.15;;
43580;SDS011;29175;51.030;4.606;2022-09-09T00:23:24;11.38;;;1.95;;
43580;SDS011;29175;51.030;4.606;2022-09-09T00:32:15;9.65;;;2.00;;
43580;SDS011;29175;51.030;4.606;2022-09-09T00:34:53;5.13;;;1.98;;
43580;SDS011;29175;51.030;4.606;2022-09-09T00:37:22;5.40;;;1.75;;
43580;SDS011;29175;51.030;4.606;2022-09-09T00:49:13;5.53;;;1.90;;
43580;SDS011;29175;51.030;4.606;2022-09-09T00:57:23;4.45;;;1.90;;
43580;SDS011;29175;51.030;4.606;2022-09-09T00:59:56;7.22;;;2.10;;
43580;SDS011;29175;51.030;4.606;2022-09-09T01:17:12;5.03;;;1.75;;
43580;SDS011;29175;51.030;4.606;2022-09-09T01:22:11;4.13;;;1.70;;
43580;SDS011;29175;51.030;4.606;2022-09-09T01:25:07;6.40;;;1.48;;
43580;SDS011;29175;51.030;4.606;2022-09-09T01:27:35;4.75;;;1.67;;
43580;SDS011;29175;51.030;4.606;2022-09-09T01:30:05;9.02;;;1.63;;
43580;SDS011;29175;51.030;4.606;2022-09-09T01:32:39;6.03;;;1.75;;
43580;SDS011;29175;51.030;4.606;2022-09-09T01:35:15;5.10;;;1.75;;
43580;SDS011;29175;51.030;4.606;2022-09-09T01:37:56;8.77;;;2.05;;
43580;SDS011;29175;51.030;4.606;2022-09-09T01:46:57;6.05;;;2.13;;
43580;SDS011;29175;51.030;4.606;2022-09-09T01:49:22;3.15;;;1.67;;
43580;SDS011;29175;51.030;4.606;2022-09-09T02:02:25;9.63;;;1.90;;
43580;SDS011;29175;51.030;4.606;2022-09-09T02:05:12;6.70;;;1.67;;
43580;SDS011;29175;51.030;4.606;2022-09-09T02:10:23;7.75;;;1.92;;
43580;SDS011;29175;51.030;4.606;2022-09-09T02:22:59;5.85;;;2.10;;
43580;SDS011;29175;51.030;4.606;2022-09-09T02:25:28;6.70;;;1.83;;
43580;SDS011;29175;51.030;4.606;2022-09-09T02:34:45;4.57;;;1.63;;
43580;SDS011;29175;51.030;4.606;2022-09-09T02:37:20;5.75;;;1.92;;
43580;SDS011;29175;51.030;4.606;2022-09-09T02:39:53;4.68;;;2.00;;
43580;SDS011;29175;51.030;4.606;2022-09-09T02:42:20;10.90;;;2.13;;
43580;SDS011;29175;51.030;4.606;2022-09-09T02:44:46;10.48;;;2.88;;
43580;SDS011;29175;51.030;4.606;2022-09-09T02:47:19;10.75;;;2.22;;
43580;SDS011;29175;51.030;4.606;2022-09-09T02:50:13;7.47;;;2.10;;
43580;SDS011;29175;51.030;4.606;2022-09-09T02:58:54;8.45;;;2.08;;
43580;SDS011;29175;51.030;4.606;2022-09-09T03:01:20;8.23;;;1.92;;
43580;SDS011;29175;51.030;4.606;2022-09-09T03:03:46;5.93;;;2.40;;
43580;SDS011;29175;51.030;4.606;2022-09-09T03:06:12;10.23;;;2.17;;
43580;SDS011;29175;51.030;4.606;2022-09-09T03:08:39;12.55;;;2.42;;
43580;SDS011;29175;51.030;4.606;2022-09-09T03:14:27;8.30;;;2.28;;
43580;SDS011;29175;51.030;4.606;2022-09-09T03:16:53;11.63;;;2.67;;
43580;SDS011;29175;51.030;4.606;2022-09-09T03:19:19;10.50;;;2.42;;
43580;SDS011;29175;51.030;4.606;2022-09-09T03:21:46;10.35;;;2.30;;
43580;SDS011;29175;51.030;4.606;2022-09-09T03:24:24;7.75;;;2.35;;
43580;SDS011;29175;51.030;4.606;2022-09-09T03:26:51;9.48;;;2.35;;
43580;SDS011;29175;51.030;4.606;2022-09-09T03:29:16;9.57;;;2.25;;
43580;SDS011;29175;51.030;4.606;2022-09-09T03:31:43;9.20;;;2.38;;
43580;SDS011;29175;51.030;4.606;2022-09-09T03:34:09;9.13;;;2.53;;
43580;SDS011;29175;51.030;4.606;2022-09-09T03:36:36;6.22;;;2.15;;
43580;SDS011;29175;51.030;4.606;2022-09-09T03:39:02;7.18;;;2.00;;
43580;SDS011;29175;51.030;4.606;2022-09-09T03:41:28;6.43;;;2.03;;
43580;SDS011;29175;51.030;4.606;2022-09-09T03:43:55;7.75;;;2.75;;
43580;SDS011;29175;51.030;4.606;2022-09-09T03:46:21;10.02;;;2.67;;
43580;SDS011;29175;51.030;4.606;2022-09-09T03:48:48;9.05;;;2.53;;
43580;SDS011;29175;51.030;4.606;2022-09-09T03:51:14;8.00;;;2.60;;
43580;SDS011;29175;51.030;4.606;2022-09-09T03:53:41;11.32;;;2.60;;
43580;SDS011;29175;51.030;4.606;2022-09-09T03:56:07;11.93;;;2.97;;
43580;SDS011;29175;51.030;4.606;2022-09-09T03:58:36;8.23;;;2.72;;
43580;SDS011;29175;51.030;4.606;2022-09-09T04:01:06;6.57;;;2.40;;
43580;SDS011;29175;51.030;4.606;2022-09-09T04:07:00;14.23;;;2.72;;
43580;SDS011;29175;51.030;4.606;2022-09-09T04:09:26;16.83;;;3.00;;
43580;SDS011;29175;51.030;4.606;2022-09-09T04:11:51;16.10;;;2.95;;
43580;SDS011;29175;51.030;4.606;2022-09-09T04:14:18;9.48;;;2.95;;
43580;SDS011;29175;51.030;4.606;2022-09-09T04:16:44;6.20;;;2.58;;
43580;SDS011;29175;51.030;4.606;2022-09-09T04:19:11;15.70;;;2.80;;
43580;SDS011;29175;51.030;4.606;2022-09-09T04:21:38;14.00;;;2.83;;
43580;SDS011;29175;51.030;4.606;2022-09-09T04:24:06;11.70;;;2.92;;
43580;SDS011;29175;51.030;4.606;2022-09-09T04:26:32;22.00;;;3.38;;
43580;SDS011;29175;51.030;4.606;2022-09-09T04:28:58;20.58;;;2.90;;
43580;SDS011;29175;51.030;4.606;2022-09-09T04:34:33;7.88;;;2.85;;
43580;SDS011;29175;51.030;4.606;2022-09-09T04:36:59;13.13;;;2.60;;
43580;SDS011;29175;51.030;4.606;2022-09-09T04:39:26;8.57;;;3.22;;
43580;SDS011;29175;51.030;4.606;2022-09-09T04:41:51;8.60;;;2.47;;
43580;SDS011;29175;51.030;4.606;2022-09-09T04:44:18;11.35;;;2.92;;
43580;SDS011;29175;51.030;4.606;2022-09-09T04:46:43;17.10;;;2.70;;
43580;SDS011;29175;51.030;4.606;2022-09-09T04:49:10;14.60;;;3.70;;
43580;SDS011;29175;51.030;4.606;2022-09-09T04:51:35;13.98;;;3.85;;
43580;SDS011;29175;51.030;4.606;2022-09-09T04:54:01;17.95;;;3.70;;
43580;SDS011;29175;51.030;4.606;2022-09-09T04:56:27;15.75;;;3.10;;
43580;SDS011;29175;51.030;4.606;2022-09-09T04:58:53;13.15;;;2.95;;
43580;SDS011;29175;51.030;4.606;2022-09-09T05:01:21;12.35;;;2.92;;
43580;SDS011;29175;51.030;4.606;2022-09-09T05:03:48;12.40;;;3.00;;
43580;SDS011;29175;51.030;4.606;2022-09-09T05:06:15;9.65;;;3.30;;
43580;SDS011;29175;51.030;4.606;2022-09-09T05:08:43;17.25;;;3.22;;
43580;SDS011;29175;51.030;4.606;2022-09-09T05:11:22;10.98;;;2.90;;
43580;SDS011;29175;51.030;4.606;2022-09-09T05:13:49;17.70;;;2.97;;
43580;SDS011;29175;51.030;4.606;2022-09-09T05:16:15;11.57;;;3.53;;
43580;SDS011;29175;51.030;4.606;2022-09-09T05:18:42;21.85;;;3.95;;
43580;SDS011;29175;51.030;4.606;2022-09-09T05:21:08;14.38;;;3.38;;
43580;SDS011;29175;51.030;4.606;2022-09-09T05:23:39;16.20;;;3.08;;
43580;SDS011;29175;51.030;4.606;2022-09-09T05:26:05;19.42;;;3.72;;
43580;SDS011;29175;51.030;4.606;2022-09-09T05:28:35;10.55;;;3.03;;
43580;SDS011;29175;51.030;4.606;2022-09-09T05:31:02;20.50;;;3.55;;
43580;SDS011;29175;51.030;4.606;2022-09-09T05:33:31;13.40;;;3.58;;
43580;SDS011;29175;51.030;4.606;2022-09-09T05:35:57;18.80;;;3.65;;
43580;SDS011;29175;51.030;4.606;2022-09-09T05:38:29;13.70;;;3.17;;
43580;SDS011;29175;51.030;4.606;2022-09-09T05:40:55;20.73;;;3.70;;
43580;SDS011;29175;51.030;4.606;2022-09-09T05:43:24;18.48;;;3.97;;
43580;SDS011;29175;51.030;4.606;2022-09-09T05:46:00;10.98;;;3.35;;
43580;SDS011;29175;51.030;4.606;2022-09-09T05:48:31;10.02;;;3.10;;
43580;SDS011;29175;51.030;4.606;2022-09-09T05:50:59;13.73;;;3.08;;
43580;SDS011;29175;51.030;4.606;2022-09-09T05:53:26;12.68;;;3.47;;
43580;SDS011;29175;51.030;4.606;2022-09-09T05:59:14;14.93;;;2.95;;
43580;SDS011;29175;51.030;4.606;2022-09-09T06:01:40;16.35;;;2.88;;
43580;SDS011;29175;51.030;4.606;2022-09-09T06:04:17;13.23;;;3.30;;
43580;SDS011;29175;51.030;4.606;2022-09-09T06:06:46;9.50;;;2.70;;
43580;SDS011;29175;51.030;4.606;2022-09-09T06:09:13;13.07;;;2.97;;
43580;SDS011;29175;51.030;4.606;2022-09-09T06:11:40;17.23;;;2.95;;
43580;SDS011;29175;51.030;4.606;2022-09-09T06:14:06;14.82;;;3.00;;
43580;SDS011;29175;51.030;4.606;2022-09-09T06:16:33;12.27;;;3.47;;
43580;SDS011;29175;51.030;4.606;2022-09-09T06:18:59;18.33;;;3.50;;
43580;SDS011;29175;51.030;4.606;2022-09-09T06:21:29;16.88;;;3.15;;
43580;SDS011;29175;51.030;4.606;2022-09-09T06:23:57;17.92;;;3.00;;
43580;SDS011;29175;51.030;4.606;2022-09-09T06:26:24;16.83;;;3.22;;
43580;SDS011;29175;51.030;4.606;2022-09-09T06:29:00;14.60;;;3.17;;
43580;SDS011;29175;51.030;4.606;2022-09-09T06:31:28;15.40;;;2.97;;
43580;SDS011;29175;51.030;4.606;2022-09-09T06:33:57;9.52;;;3.40;;
43580;SDS011;29175;51.030;4.606;2022-09-09T06:36:30;19.98;;;3.35;;
43580;SDS011;29175;51.030;4.606;2022-09-09T06:38:58;13.10;;;2.53;;
43580;SDS011;29175;51.030;4.606;2022-09-09T06:41:25;12.68;;;2.90;;
43580;SDS011;29175;51.030;4.606;2022-09-09T06:43:52;15.32;;;2.95;;
43580;SDS011;29175;51.030;4.606;2022-09-09T06:46:28;14.38;;;2.85;;
43580;SDS011;29175;51.030;4.606;2022-09-09T06:48:56;9.02;;;2.10;;
43580;SDS011;29175;51.030;4.606;2022-09-09T06:51:25;18.60;;;3.08;;
43580;SDS011;29175;51.030;4.606;2022-09-09T06:53:53;12.52;;;2.85;;
43580;SDS011;29175;51.030;4.606;2022-09-09T06:56:30;6.75;;;2.53;;
43580;SDS011;29175;51.030;4.606;2022-09-09T06:58:59;13.40;;;2.90;;
43580;SDS011;29175;51.030;4.606;2022-09-09T07:01:28;9.00;;;3.35;;
43580;SDS011;29175;51.030;4.606;2022-09-09T07:03:56;14.02;;;2.63;;
43580;SDS011;29175;51.030;4.606;2022-09-09T07:06:24;14.73;;;2.75;;
43580;SDS011;29175;51.030;4.606;2022-09-09T07:08:54;8.60;;;2.92;;
43580;SDS011;29175;51.030;4.606;2022-09-09T07:11:22;8.05;;;2.40;;
43580;SDS011;29175;51.030;4.606;2022-09-09T07:13:49;14.18;;;2.80;;
43580;SDS011;29175;51.030;4.606;2022-09-09T07:16:16;12.43;;;3.08;;
43580;SDS011;29175;51.030;4.606;2022-09-09T07:22:05;10.90;;;2.78;;
43580;SDS011;29175;51.030;4.606;2022-09-09T07:24:31;12.90;;;2.97;;
43580;SDS011;29175;51.030;4.606;2022-09-09T07:30:19;10.43;;;2.65;;
43580;SDS011;29175;51.030;4.606;2022-09-09T07:32:44;11.90;;;2.70;;
43580;SDS011;29175;51.030;4.606;2022-09-09T07:35:10;14.88;;;2.83;;
43580;SDS011;29175;51.030;4.606;2022-09-09T07:37:37;13.45;;;2.70;;
43580;SDS011;29175;51.030;4.606;2022-09-09T07:40:03;10.80;;;2.67;;
43580;SDS011;29175;51.030;4.606;2022-09-09T07:42:30;17.75;;;3.22;;
43580;SDS011;29175;51.030;4.606;2022-09-09T07:44:56;15.77;;;2.72;;
43580;SDS011;29175;51.030;4.606;2022-09-09T07:47:21;11.02;;;2.67;;
43580;SDS011;29175;51.030;4.606;2022-09-09T07:49:49;20.88;;;2.75;;
43580;SDS011;29175;51.030;4.606;2022-09-09T07:52:15;9.57;;;2.67;;
43580;SDS011;29175;51.030;4.606;2022-09-09T07:54:41;7.70;;;2.28;;
43580;SDS011;29175;51.030;4.606;2022-09-09T08:00:29;14.82;;;2.60;;
43580;SDS011;29175;51.030;4.606;2022-09-09T08:02:55;15.20;;;3.35;;
43580;SDS011;29175;51.030;4.606;2022-09-09T08:05:20;13.77;;;3.05;;
43580;SDS011;29175;51.030;4.606;2022-09-09T08:07:47;15.75;;;2.70;;
43580;SDS011;29175;51.030;4.606;2022-09-09T08:10:13;8.00;;;2.33;;
43580;SDS011;29175;51.030;4.606;2022-09-09T08:12:41;10.88;;;2.42;;
43580;SDS011;29175;51.030;4.606;2022-09-09T08:15:06;16.17;;;2.53;;
43580;SDS011;29175;51.030;4.606;2022-09-09T08:17:33;11.20;;;2.72;;
43580;SDS011;29175;51.030;4.606;2022-09-09T08:19:59;6.97;;;2.40;;
43580;SDS011;29175;51.030;4.606;2022-09-09T08:22:29;7.65;;;2.00;;
43580;SDS011;29175;51.030;4.606;2022-09-09T08:24:55;13.93;;;2.20;;
43580;SDS011;29175;51.030;4.606;2022-09-09T08:27:21;7.78;;;1.95;;
43580;SDS011;29175;51.030;4.606;2022-09-09T08:29:47;10.00;;;1.85;;
43580;SDS011;29175;51.030;4.606;2022-09-09T08:32:13;8.88;;;2.22;;
43580;SDS011;29175;51.030;4.606;2022-09-09T08:34:39;8.77;;;2.10;;
43580;SDS011;29175;51.030;4.606;2022-09-09T08:37:05;10.77;;;2.10;;
43580;SDS011;29175;51.030;4.606;2022-09-09T08:39:31;12.18;;;2.03;;
43580;SDS011;29175;51.030;4.606;2022-09-09T08:51:06;12.10;;;2.30;;
43580;SDS011;29175;51.030;4.606;2022-09-09T08:53:41;10.05;;;2.40;;
43580;SDS011;29175;51.030;4.606;2022-09-09T08:56:12;6.47;;;2.60;;
43580;SDS011;29175;51.030;4.606;2022-09-09T08:58:43;13.63;;;3.20;;
43580;SDS011;29175;51.030;4.606;2022-09-09T09:04:42;6.68;;;2.15;;
43580;SDS011;29175;51.030;4.606;2022-09-09T09:07:45;12.90;;;2.17;;
43580;SDS011;29175;51.030;4.606;2022-09-09T09:15:46;14.43;;;2.40;;
43580;SDS011;29175;51.030;4.606;2022-09-09T09:18:20;12.25;;;2.53;;
43580;SDS011;29175;51.030;4.606;2022-09-09T09:20:49;15.57;;;2.75;;
43580;SDS011;29175;51.030;4.606;2022-09-09T09:29:38;7.70;;;2.38;;
43580;SDS011;29175;51.030;4.606;2022-09-09T09:32:09;9.93;;;2.70;;
43580;SDS011;29175;51.030;4.606;2022-09-09T09:34:39;14.20;;;2.88;;
43580;SDS011;29175;51.030;4.606;2022-09-09T09:37:12;9.98;;;2.50;;
43580;SDS011;29175;51.030;4.606;2022-09-09T09:39:44;10.60;;;2.75;;
43580;SDS011;29175;51.030;4.606;2022-09-09T09:42:16;16.10;;;3.20;;
43580;SDS011;29175;51.030;4.606;2022-09-09T09:44:43;14.77;;;2.40;;
43580;SDS011;29175;51.030;4.606;2022-09-09T09:49:39;6.95;;;2.30;;
43580;SDS011;29175;51.030;4.606;2022-09-09T09:52:15;13.95;;;2.50;;
43580;SDS011;29175;51.030;4.606;2022-09-09T09:54:45;8.48;;;2.38;;
43580;SDS011;29175;51.030;4.606;2022-09-09T09:57:12;10.48;;;2.33;;
43580;SDS011;29175;51.030;4.606;2022-09-09T10:06:03;11.80;;;2.63;;
43580;SDS011;29175;51.030;4.606;2022-09-09T10:08:29;13.00;;;2.30;;
43580;SDS011;29175;51.030;4.606;2022-09-09T10:19:54;9.15;;;2.45;;
43580;SDS011;29175;51.030;4.606;2022-09-09T10:22:25;8.27;;;2.17;;
43580;SDS011;29175;51.030;4.606;2022-09-09T10:35:10;13.43;;;2.50;;
43580;SDS011;29175;51.030;4.606;2022-09-09T10:46:22;9.07;;;2.10;;
43580;SDS011;29175;51.030;4.606;2022-09-09T10:57:00;11.05;;;2.20;;
43580;SDS011;29175;51.030;4.606;2022-09-09T10:59:41;5.75;;;2.60;;
43580;SDS011;29175;51.030;4.606;2022-09-09T11:02:15;8.25;;;2.38;;
43580;SDS011;29175;51.030;4.606;2022-09-09T11:04:49;11.10;;;2.72;;
43580;SDS011;29175;51.030;4.606;2022-09-09T11:07:55;7.97;;;2.40;;
43580;SDS011;29175;51.030;4.606;2022-09-09T11:12:53;13.52;;;2.40;;
43580;SDS011;29175;51.030;4.606;2022-09-09T11:15:31;7.47;;;2.55;;
43580;SDS011;29175;51.030;4.606;2022-09-09T11:18:04;10.35;;;2.80;;
43580;SDS011;29175;51.030;4.606;2022-09-09T11:20:31;5.07;;;2.13;;
43580;SDS011;29175;51.030;4.606;2022-09-09T11:23:02;11.68;;;2.35;;
43580;SDS011;29175;51.030;4.606;2022-09-09T11:25:42;11.75;;;2.45;;
43580;SDS011;29175;51.030;4.606;2022-09-09T11:39:01;10.50;;;2.10;;
43580;SDS011;29175;51.030;4.606;2022-09-09T11:41:35;11.02;;;2.33;;
43580;SDS011;29175;51.030;4.606;2022-09-09T11:44:09;9.45;;;2.10;;
43580;SDS011;29175;51.030;4.606;2022-09-09T11:46:38;5.80;;;1.83;;
43580;SDS011;29175;51.030;4.606;2022-09-09T11:49:05;8.27;;;1.70;;
43580;SDS011;29175;51.030;4.606;2022-09-09T11:51:32;5.30;;;1.60;;
43580;SDS011;29175;51.030;4.606;2022-09-09T11:56:43;10.50;;;1.67;;
43580;SDS011;29175;51.030;4.606;2022-09-09T11:59:20;5.00;;;2.00;;
43580;SDS011;29175;51.030;4.606;2022-09-09T12:01:46;9.00;;;1.90;;
43580;SDS011;29175;51.030;4.606;2022-09-09T12:04:33;6.43;;;1.50;;
43580;SDS011;29175;51.030;4.606;2022-09-09T12:15:57;8.85;;;1.92;;
43580;SDS011;29175;51.030;4.606;2022-09-09T12:18:37;6.18;;;1.42;;
43580;SDS011;29175;51.030;4.606;2022-09-09T12:21:21;7.85;;;1.60;;
43580;SDS011;29175;51.030;4.606;2022-09-09T12:27:26;10.82;;;1.85;;
43580;SDS011;29175;51.030;4.606;2022-09-09T12:30:09;6.03;;;1.60;;
43580;SDS011;29175;51.030;4.606;2022-09-09T12:35:59;5.28;;;1.83;;
43580;SDS011;29175;51.030;4.606;2022-09-09T12:38:38;7.00;;;1.90;;
43580;SDS011;29175;51.030;4.606;2022-09-09T12:41:05;9.65;;;2.25;;
43580;SDS011;29175;51.030;4.606;2022-09-09T12:43:45;6.33;;;1.60;;
43580;SDS011;29175;51.030;4.606;2022-09-09T12:46:15;10.57;;;1.90;;
43580;SDS011;29175;51.030;4.606;2022-09-09T12:48:56;9.27;;;1.90;;
43580;SDS011;29175;51.030;4.606;2022-09-09T12:51:26;5.18;;;1.77;;
43580;SDS011;29175;51.030;4.606;2022-09-09T12:53:58;7.50;;;1.60;;
43580;SDS011;29175;51.030;4.606;2022-09-09T12:56:25;8.40;;;1.63;;
43580;SDS011;29175;51.030;4.606;2022-09-09T12:58:54;9.23;;;2.00;;
43580;SDS011;29175;51.030;4.606;2022-09-09T13:01:23;4.70;;;1.65;;
43580;SDS011;29175;51.030;4.606;2022-09-09T13:03:50;5.22;;;1.80;;
43580;SDS011;29175;51.030;4.606;2022-09-09T13:06:23;5.20;;;1.77;;
43580;SDS011;29175;51.030;4.606;2022-09-09T13:08:54;6.78;;;1.70;;
43580;SDS011;29175;51.030;4.606;2022-09-09T13:17:19;8.95;;;1.92;;
43580;SDS011;29175;51.030;4.606;2022-09-09T13:19:47;5.28;;;1.77;;
43580;SDS011;29175;51.030;4.606;2022-09-09T13:22:29;5.22;;;1.40;;
43580;SDS011;29175;51.030;4.606;2022-09-09T13:27:40;3.55;;;1.40;;
43580;SDS011;29175;51.030;4.606;2022-09-09T13:30:20;8.23;;;1.70;;
43580;SDS011;29175;51.030;4.606;2022-09-09T13:33:05;6.40;;;1.83;;
43580;SDS011;29175;51.030;4.606;2022-09-09T13:35:35;3.60;;;1.48;;
43580;SDS011;29175;51.030;4.606;2022-09-09T13:38:14;7.57;;;1.55;;
43580;SDS011;29175;51.030;4.606;2022-09-09T13:40:51;8.65;;;1.88;;
43580;SDS011;29175;51.030;4.606;2022-09-09T13:43:21;7.43;;;1.38;;
43580;SDS011;29175;51.030;4.606;2022-09-09T13:45:58;4.35;;;1.48;;
43580;SDS011;29175;51.030;4.606;2022-09-09T13:48:28;4.13;;;1.52;;
43580;SDS011;29175;51.030;4.606;2022-09-09T13:50:57;6.10;;;1.50;;
43580;SDS011;29175;51.030;4.606;2022-09-09T13:53:24;21.52;;;3.10;;
43580;SDS011;29175;51.030;4.606;2022-09-09T13:55:51;7.18;;;1.90;;
43580;SDS011;29175;51.030;4.606;2022-09-09T13:58:18;6.25;;;1.80;;
43580;SDS011;29175;51.030;4.606;2022-09-09T14:00:44;6.65;;;1.60;;
43580;SDS011;29175;51.030;4.606;2022-09-09T14:03:12;5.88;;;1.60;;
43580;SDS011;29175;51.030;4.606;2022-09-09T14:05:38;6.32;;;1.50;;
43580;SDS011;29175;51.030;4.606;2022-09-09T14:08:05;5.45;;;1.40;;
43580;SDS011;29175;51.030;4.606;2022-09-09T14:10:32;6.70;;;1.30;;
43580;SDS011;29175;51.030;4.606;2022-09-09T14:13:03;4.07;;;1.33;;
43580;SDS011;29175;51.030;4.606;2022-09-09T14:15:29;7.10;;;1.70;;
43580;SDS011;29175;51.030;4.606;2022-09-09T14:17:55;2.33;;;1.25;;
43580;SDS011;29175;51.030;4.606;2022-09-09T14:20:21;4.93;;;1.30;;
43580;SDS011;29175;51.030;4.606;2022-09-09T14:22:46;4.95;;;1.33;;
43580;SDS011;29175;51.030;4.606;2022-09-09T14:25:12;6.28;;;1.80;;
43580;SDS011;29175;51.030;4.606;2022-09-09T14:27:38;5.88;;;1.65;;
43580;SDS011;29175;51.030;4.606;2022-09-09T14:30:05;6.95;;;1.90;;
43580;SDS011;29175;51.030;4.606;2022-09-09T14:32:31;5.57;;;1.70;;
43580;SDS011;29175;51.030;4.606;2022-09-09T14:34:59;5.05;;;1.50;;
43580;SDS011;29175;51.030;4.606;2022-09-09T14:37:24;4.78;;;1.48;;
43580;SDS011;29175;51.030;4.606;2022-09-09T14:39:50;13.45;;;2.22;;
43580;SDS011;29175;51.030;4.606;2022-09-09T14:42:16;5.63;;;1.60;;
43580;SDS011;29175;51.030;4.606;2022-09-09T14:44:48;4.95;;;1.40;;
43580;SDS011;29175;51.030;4.606;2022-09-09T14:47:15;5.00;;;1.75;;
43580;SDS011;29175;51.030;4.606;2022-09-09T14:49:41;6.03;;;1.38;;
43580;SDS011;29175;51.030;4.606;2022-09-09T14:52:07;15.82;;;2.05;;
43580;SDS011;29175;51.030;4.606;2022-09-09T14:54:34;6.50;;;1.50;;
43580;SDS011;29175;51.030;4.606;2022-09-09T14:56:59;6.10;;;1.60;;
43580;SDS011;29175;51.030;4.606;2022-09-09T14:59:25;2.75;;;1.17;;
43580;SDS011;29175;51.030;4.606;2022-09-09T15:01:51;8.27;;;1.60;;
43580;SDS011;29175;51.030;4.606;2022-09-09T15:04:19;6.80;;;1.50;;
43580;SDS011;29175;51.030;4.606;2022-09-09T15:06:45;8.27;;;1.70;;
43580;SDS011;29175;51.030;4.606;2022-09-09T15:09:13;3.70;;;1.70;;
43580;SDS011;29175;51.030;4.606;2022-09-09T15:11:40;8.45;;;1.77;;
43580;SDS011;29175;51.030;4.606;2022-09-09T15:14:06;5.07;;;1.80;;
43580;SDS011;29175;51.030;4.606;2022-09-09T15:16:33;7.85;;;2.00;;
43580;SDS011;29175;51.030;4.606;2022-09-09T15:18:59;5.35;;;2.17;;
43580;SDS011;29175;51.030;4.606;2022-09-09T15:21:29;6.75;;;1.90;;
43580;SDS011;29175;51.030;4.606;2022-09-09T15:23:57;4.90;;;1.17;;
43580;SDS011;29175;51.030;4.606;2022-09-09T15:26:23;6.38;;;1.73;;
43580;SDS011;29175;51.030;4.606;2022-09-09T15:28:49;15.60;;;2.08;;
43580;SDS011;29175;51.030;4.606;2022-09-09T15:36:17;6.13;;;1.30;;
43580;SDS011;29175;51.030;4.606;2022-09-09T15:38:48;2.33;;;0.70;;
43580;SDS011;29175;51.030;4.606;2022-09-09T15:41:16;1.57;;;0.70;;
43580;SDS011;29175;51.030;4.606;2022-09-09T15:43:47;2.28;;;0.70;;
43580;SDS011;29175;51.030;4.606;2022-09-09T15:46:22;1.35;;;0.60;;
43580;SDS011;29175;51.030;4.606;2022-09-09T15:49:09;3.67;;;0.80;;
43580;SDS011;29175;51.030;4.606;2022-09-09T15:51:39;3.53;;;1.20;;
43580;SDS011;29175;51.030;4.606;2022-09-09T15:54:07;5.43;;;1.13;;
43580;SDS011;29175;51.030;4.606;2022-09-09T15:56:34;7.60;;;1.55;;
43580;SDS011;29175;51.030;4.606;2022-09-09T15:59:01;11.13;;;1.50;;
43580;SDS011;29175;51.030;4.606;2022-09-09T16:01:28;3.95;;;1.58;;
43580;SDS011;29175;51.030;4.606;2022-09-09T16:03:55;10.10;;;2.85;;
43580;SDS011;29175;51.030;4.606;2022-09-09T16:16:43;7.60;;;1.80;;
43580;SDS011;29175;51.030;4.606;2022-09-09T16:32:37;5.07;;;2.08;;
43580;SDS011;29175;51.030;4.606;2022-09-09T16:38:26;7.85;;;2.40;;
43580;SDS011;29175;51.030;4.606;2022-09-09T16:47:36;7.88;;;2.90;;
43580;SDS011;29175;51.030;4.606;2022-09-09T16:52:55;7.00;;;2.75;;
43580;SDS011;29175;51.030;4.606;2022-09-09T16:55:21;11.15;;;2.65;;
43580;SDS011;29175;51.030;4.606;2022-09-09T16:57:48;9.68;;;2.92;;
43580;SDS011;29175;51.030;4.606;2022-09-09T17:00:15;9.65;;;3.30;;
43580;SDS011;29175;51.030;4.606;2022-09-09T17:08:29;5.22;;;2.60;;
43580;SDS011;29175;51.030;4.606;2022-09-09T17:10:56;6.15;;;2.80;;
43580;SDS011;29175;51.030;4.606;2022-09-09T17:13:23;8.48;;;2.58;;
43580;SDS011;29175;51.030;4.606;2022-09-09T17:18:51;8.57;;;2.78;;
43580;SDS011;29175;51.030;4.606;2022-09-09T17:21:18;10.38;;;2.58;;
43580;SDS011;29175;51.030;4.606;2022-09-09T17:23:46;9.88;;;2.50;;
43580;SDS011;29175;51.030;4.606;2022-09-09T17:26:13;5.03;;;2.30;;
43580;SDS011;29175;51.030;4.606;2022-09-09T17:28:40;4.53;;;2.45;;
43580;SDS011;29175;51.030;4.606;2022-09-09T17:31:14;3.65;;;2.35;;
43580;SDS011;29175;51.030;4.606;2022-09-09T17:37:56;5.95;;;2.08;;
43580;SDS011;29175;51.030;4.606;2022-09-09T17:40:23;7.78;;;2.40;;
43580;SDS011;29175;51.030;4.606;2022-09-09T17:42:48;7.50;;;2.28;;
43580;SDS011;29175;51.030;4.606;2022-09-09T17:45:14;9.77;;;2.42;;
43580;SDS011;29175;51.030;4.606;2022-09-09T17:47:40;10.13;;;2.28;;
43580;SDS011;29175;51.030;4.606;2022-09-09T17:50:07;5.72;;;2.83;;
43580;SDS011;29175;51.030;4.606;2022-09-09T17:55:53;6.82;;;2.50;;
43580;SDS011;29175;51.030;4.606;2022-09-09T17:58:20;7.13;;;3.20;;
43580;SDS011;29175;51.030;4.606;2022-09-09T18:07:29;6.22;;;2.33;;
43580;SDS011;29175;51.030;4.606;2022-09-09T18:26:36;6.60;;;2.67;;
43580;SDS011;29175;51.030;4.606;2022-09-09T18:29:07;6.43;;;2.60;;
43580;SDS011;29175;51.030;4.606;2022-09-09T18:31:36;5.70;;;2.63;;
43580;SDS011;29175;51.030;4.606;2022-09-09T18:34:03;14.07;;;3.00;;
43580;SDS011;29175;51.030;4.606;2022-09-09T18:36:32;7.78;;;2.60;;
43580;SDS011;29175;51.030;4.606;2022-09-09T18:38:59;10.43;;;2.85;;
43580;SDS011;29175;51.030;4.606;2022-09-09T18:41:28;8.10;;;2.05;;
43580;SDS011;29175;51.030;4.606;2022-09-09T18:44:06;9.48;;;2.65;;
43580;SDS011;29175;51.030;4.606;2022-09-09T18:46:37;11.73;;;2.25;;
43580;SDS011;29175;51.030;4.606;2022-09-09T18:49:04;7.28;;;1.83;;
43580;SDS011;29175;51.030;4.606;2022-09-09T18:51:31;11.77;;;2.63;;
43580;SDS011;29175;51.030;4.606;2022-09-09T18:54:05;8.32;;;2.10;;
43580;SDS011;29175;51.030;4.606;2022-09-09T18:56:34;7.35;;;2.67;;
43580;SDS011;29175;51.030;4.606;2022-09-09T18:59:03;9.77;;;2.33;;
43580;SDS011;29175;51.030;4.606;2022-09-09T19:01:30;8.52;;;2.15;;
43580;SDS011;29175;51.030;4.606;2022-09-09T19:03:59;7.13;;;2.55;;
43580;SDS011;29175;51.030;4.606;2022-09-09T19:06:27;6.85;;;1.92;;
43580;SDS011;29175;51.030;4.606;2022-09-09T19:08:57;17.52;;;3.08;;
43580;SDS011;29175;51.030;4.606;2022-09-09T19:11:24;12.82;;;2.35;;
43580;SDS011;29175;51.030;4.606;2022-09-09T19:13:51;7.03;;;2.13;;
43580;SDS011;29175;51.030;4.606;2022-09-09T19:16:22;7.65;;;2.13;;
43580;SDS011;29175;51.030;4.606;2022-09-09T19:18:49;6.45;;;2.17;;
43580;SDS011;29175;51.030;4.606;2022-09-09T19:24:32;10.45;;;2.85;;
43580;SDS011;29175;51.030;4.606;2022-09-09T19:26:38;14.45;;;2.38;;
43580;SDS011;29175;51.030;4.606;2022-09-09T19:29:10;10.35;;;2.85;;
43580;SDS011;29175;51.030;4.606;2022-09-09T19:31:44;16.10;;;2.72;;
43580;SDS011;29175;51.030;4.606;2022-09-09T19:36:37;12.15;;;2.47;;
43580;SDS011;29175;51.030;4.606;2022-09-09T19:39:04;6.80;;;2.45;;
43580;SDS011;29175;51.030;4.606;2022-09-09T19:41:30;19.25;;;2.67;;
43580;SDS011;29175;51.030;4.606;2022-09-09T19:43:58;10.85;;;2.60;;
43580;SDS011;29175;51.030;4.606;2022-09-09T19:46:26;11.13;;;2.97;;
43580;SDS011;29175;51.030;4.606;2022-09-09T19:48:56;14.90;;;2.45;;
43580;SDS011;29175;51.030;4.606;2022-09-09T19:51:23;12.93;;;2.53;;
43580;SDS011;29175;51.030;4.606;2022-09-09T19:53:51;8.98;;;2.65;;
43580;SDS011;29175;51.030;4.606;2022-09-09T19:56:22;8.52;;;2.50;;
43580;SDS011;29175;51.030;4.606;2022-09-09T19:58:51;13.50;;;2.70;;
43580;SDS011;29175;51.030;4.606;2022-09-09T20:01:23;12.32;;;3.03;;
43580;SDS011;29175;51.030;4.606;2022-09-09T20:03:51;9.77;;;2.63;;
43580;SDS011;29175;51.030;4.606;2022-09-09T20:06:21;10.80;;;3.00;;
43580;SDS011;29175;51.030;4.606;2022-09-09T20:08:50;14.48;;;3.03;;